createdAt,value
2019-01-29T00:00:23.673Z,3.43
2019-01-29T00:01:23.713Z,3.40
2019-01-29T00:02:23.746Z,3.42
2019-01-29T00:03:23.782Z,3.33
2019-01-29T00:04:23.816Z,3.36
2019-01-29T00:05:23.855Z,3.29
2019-01-29T00:06:23.897Z,3.35
2019-01-29T00:07:23.942Z,3.28
2019-01-29T00:08:23.960Z,3.29
2019-01-29T00:09:24.083Z,3.21
2019-01-29T00:10:24.036Z,3.26
2019-01-29T00:11:24.067Z,3.17
2019-01-29T00:12:24.111Z,3.21
2019-01-29T00:13:24.142Z,3.21
2019-01-29T00:14:24.177Z,3.14
2019-01-29T00:15:24.212Z,3.14
2019-01-29T00:16:24.248Z,3.20
2019-01-29T00:17:24.283Z,3.11
2019-01-29T00:18:24.321Z,3.14
2019-01-29T00:19:24.356Z,3.10
2019-01-29T00:20:24.391Z,3.11
2019-01-29T00:21:24.430Z,3.08
2019-01-29T00:22:24.465Z,3.02
2019-01-29T00:23:24.499Z,3.00
2019-01-29T00:24:24.535Z,3.06
2019-01-29T00:25:24.570Z,3.03
2019-01-29T00:26:24.607Z,3.03
2019-01-29T00:27:24.643Z,3.03
2019-01-29T00:28:24.678Z,3.06
2019-01-29T00:29:24.716Z,3.00
2019-01-29T00:30:24.766Z,3.02
2019-01-29T00:31:24.785Z,3.03
2019-01-29T00:32:24.821Z,3.05
2019-01-29T00:33:24.959Z,3.06
2019-01-29T00:34:24.894Z,3.06
2019-01-29T00:35:24.933Z,3.02
2019-01-29T00:36:24.964Z,3.05
2019-01-29T00:37:25.004Z,3.03
2019-01-29T00:38:25.044Z,3.06
2019-01-29T00:39:25.071Z,3.05
2019-01-29T00:40:25.108Z,3.10
2019-01-29T00:41:25.143Z,2.97
2019-01-29T00:42:25.185Z,3.08
2019-01-29T00:43:25.213Z,3.03
2019-01-29T00:44:25.251Z,3.02
2019-01-29T00:45:25.287Z,3.05
2019-01-29T00:46:25.325Z,3.05
2019-01-29T00:47:25.357Z,3.08
2019-01-29T00:48:25.400Z,3.05
2019-01-29T00:49:25.429Z,2.95
2019-01-29T00:50:25.471Z,2.93
2019-01-29T00:51:25.502Z,3.05
2019-01-29T00:52:25.537Z,2.92
2019-01-29T00:53:25.574Z,3.02
2019-01-29T00:54:25.611Z,3.00
2019-01-29T00:55:25.645Z,2.99
2019-01-29T00:56:25.680Z,3.06
2019-01-29T00:57:25.718Z,3.11
2019-01-29T00:58:25.754Z,3.05
2019-01-29T00:59:25.789Z,3.08
2019-01-29T01:00:25.880Z,3.11
2019-01-29T01:01:25.863Z,3.17
2019-01-29T01:02:25.895Z,3.17
2019-01-29T01:03:25.933Z,3.14
2019-01-29T01:04:25.967Z,3.20
2019-01-29T01:05:26.003Z,3.15
2019-01-29T01:06:26.099Z,3.18
2019-01-29T01:07:26.074Z,3.18
2019-01-29T01:08:26.110Z,3.17
2019-01-29T01:09:26.146Z,3.17
2019-01-29T01:10:26.184Z,3.17
2019-01-29T01:11:26.221Z,3.14
2019-01-29T01:12:26.254Z,3.10
2019-01-29T01:13:26.292Z,2.99
2019-01-29T01:14:26.354Z,3.02
2019-01-29T01:15:26.361Z,3.10
2019-01-29T01:16:26.398Z,2.99
2019-01-29T01:17:26.435Z,3.05
2019-01-29T01:18:26.470Z,3.00
2019-01-29T01:19:26.507Z,3.03
2019-01-29T01:20:26.541Z,3.08
2019-01-29T01:21:26.579Z,3.00
2019-01-29T01:22:26.614Z,3.02
2019-01-29T01:23:26.667Z,3.11
2019-01-29T01:24:26.686Z,3.20
2019-01-29T01:25:26.722Z,3.15
2019-01-29T01:26:26.758Z,3.20
2019-01-29T01:27:26.800Z,3.18
2019-01-29T01:28:26.829Z,3.20
2019-01-29T01:29:26.864Z,3.13
2019-01-29T01:30:26.902Z,3.14
2019-01-29T01:31:26.936Z,3.18
2019-01-29T01:32:26.975Z,3.15
2019-01-29T01:33:27.018Z,3.15
2019-01-29T01:34:27.062Z,3.10
2019-01-29T01:35:27.078Z,3.03
2019-01-29T01:36:27.114Z,3.02
2019-01-29T01:37:27.251Z,3.03
2019-01-29T01:38:27.187Z,3.06
2019-01-29T01:39:27.230Z,2.96
2019-01-29T01:40:27.257Z,2.97
2019-01-29T01:41:27.301Z,2.99
2019-01-29T01:42:27.330Z,2.97
2019-01-29T01:43:27.365Z,2.93
2019-01-29T01:44:27.453Z,2.95
2019-01-29T01:45:27.437Z,2.92
2019-01-29T01:46:27.473Z,2.93
2019-01-29T01:47:27.508Z,2.87
2019-01-29T01:48:27.545Z,2.85
2019-01-29T01:49:27.580Z,2.84
2019-01-29T01:50:27.617Z,2.95
2019-01-29T01:51:27.654Z,2.92
2019-01-29T01:52:27.687Z,2.82
2019-01-29T01:53:27.726Z,2.75
2019-01-29T01:54:27.762Z,2.77
2019-01-29T01:55:27.797Z,2.78
2019-01-29T01:56:27.838Z,2.78
2019-01-29T01:57:27.871Z,2.72
2019-01-29T01:58:27.905Z,2.71
2019-01-29T01:59:27.940Z,2.78
2019-01-29T02:00:27.976Z,2.78
2019-01-29T02:01:28.012Z,2.74
2019-01-29T02:02:28.048Z,2.81
2019-01-29T02:03:28.083Z,2.78
2019-01-29T02:04:28.120Z,2.71
2019-01-29T02:05:28.155Z,2.67
2019-01-29T02:06:28.193Z,2.67
2019-01-29T02:07:28.553Z,2.64
2019-01-29T02:08:28.263Z,2.64
2019-01-29T02:09:28.300Z,2.66
2019-01-29T02:10:28.335Z,2.59
2019-01-29T02:11:28.437Z,2.61
2019-01-29T02:12:28.407Z,2.54
2019-01-29T02:13:28.448Z,2.56
2019-01-29T02:14:28.488Z,2.54
2019-01-29T02:15:28.515Z,2.56
2019-01-29T02:16:28.551Z,2.54
2019-01-29T02:17:28.587Z,2.59
2019-01-29T02:18:28.631Z,2.54
2019-01-29T02:19:28.661Z,2.64
2019-01-29T02:20:28.694Z,2.64
2019-01-29T02:21:28.738Z,2.64
2019-01-29T02:22:28.766Z,2.64
2019-01-29T02:23:28.802Z,2.66
2019-01-29T02:24:28.838Z,2.67
2019-01-29T02:25:28.874Z,2.69
2019-01-29T02:26:28.911Z,2.78
2019-01-29T02:27:28.945Z,2.77
2019-01-29T02:28:28.984Z,2.72
2019-01-29T02:29:29.017Z,2.75
2019-01-29T02:30:29.056Z,2.69
2019-01-29T02:31:29.099Z,2.69
2019-01-29T02:32:29.128Z,2.78
2019-01-29T02:33:29.164Z,2.82
2019-01-29T02:34:29.199Z,2.72
2019-01-29T02:35:29.238Z,2.82
2019-01-29T02:36:29.271Z,2.87
2019-01-29T02:37:29.327Z,2.82
2019-01-29T02:38:29.344Z,2.84
2019-01-29T02:39:29.378Z,2.89
2019-01-29T02:40:29.420Z,2.89
2019-01-29T02:41:29.452Z,2.96
2019-01-29T02:42:29.484Z,2.90
2019-01-29T02:43:29.519Z,2.96
2019-01-29T02:44:29.557Z,3.02
2019-01-29T02:45:29.593Z,3.13
2019-01-29T02:46:29.631Z,3.11
2019-01-29T02:47:29.664Z,3.08
2019-01-29T02:48:29.699Z,3.10
2019-01-29T02:49:29.736Z,3.06
2019-01-29T02:50:29.771Z,3.06
2019-01-29T02:51:29.806Z,3.00
2019-01-29T02:52:29.852Z,3.15
2019-01-29T02:53:29.880Z,3.13
2019-01-29T02:54:29.916Z,3.18
2019-01-29T02:55:29.957Z,3.18
2019-01-29T02:56:29.988Z,3.15
2019-01-29T02:57:30.025Z,3.17
2019-01-29T02:58:30.061Z,3.18
2019-01-29T02:59:30.097Z,3.15
2019-01-29T03:00:30.133Z,3.15
2019-01-29T03:01:30.170Z,3.15
2019-01-29T03:02:30.207Z,3.15
2019-01-29T03:03:30.240Z,3.13
2019-01-29T03:04:30.275Z,3.18
2019-01-29T03:05:30.332Z,3.14
2019-01-29T03:06:30.349Z,3.24
2019-01-29T03:07:30.389Z,3.13
2019-01-29T03:08:30.423Z,3.18
2019-01-29T03:09:30.482Z,3.18
2019-01-29T03:10:30.497Z,3.23
2019-01-29T03:11:30.531Z,3.20
2019-01-29T03:12:30.566Z,3.21
2019-01-29T03:13:30.602Z,3.32
2019-01-29T03:14:30.638Z,3.32
2019-01-29T03:15:30.673Z,3.31
2019-01-29T03:16:30.709Z,3.28
2019-01-29T03:17:30.745Z,3.29
2019-01-29T03:18:30.789Z,3.31
2019-01-29T03:19:30.815Z,3.28
2019-01-29T03:20:30.853Z,3.17
2019-01-29T03:21:31.649Z,3.20
2019-01-29T03:22:30.926Z,3.23
2019-01-29T03:23:30.969Z,3.21
2019-01-29T03:24:31.007Z,3.18
2019-01-29T03:25:31.037Z,3.18
2019-01-29T03:26:31.072Z,3.24
2019-01-29T03:27:31.106Z,3.18
2019-01-29T03:28:31.151Z,3.13
2019-01-29T03:29:31.179Z,3.14
2019-01-29T03:30:31.216Z,3.08
2019-01-29T03:31:31.303Z,3.11
2019-01-29T03:32:31.287Z,2.97
2019-01-29T03:33:31.323Z,3.06
2019-01-29T03:34:31.357Z,3.10
2019-01-29T03:35:31.395Z,3.11
2019-01-29T03:36:31.431Z,3.17
2019-01-29T03:37:31.466Z,3.18
2019-01-29T03:38:31.503Z,3.11
2019-01-29T03:39:31.539Z,3.18
2019-01-29T03:40:31.574Z,3.15
2019-01-29T03:41:31.614Z,3.20
2019-01-29T03:42:31.646Z,3.20
2019-01-29T03:43:31.686Z,3.17
2019-01-29T03:44:31.723Z,3.31
2019-01-29T03:45:31.757Z,3.18
2019-01-29T03:46:31.795Z,3.32
2019-01-29T03:47:31.830Z,3.36
2019-01-29T03:48:31.866Z,3.28
2019-01-29T03:49:31.901Z,3.35
2019-01-29T03:50:31.936Z,3.33
2019-01-29T03:51:31.972Z,3.40
2019-01-29T03:52:32.009Z,3.36
2019-01-29T03:53:37.805Z,3.47
2019-01-29T03:54:32.082Z,3.47
2019-01-29T03:55:32.117Z,3.51
2019-01-29T03:56:32.152Z,3.51
2019-01-29T03:57:32.189Z,3.50
2019-01-29T03:58:32.230Z,3.43
2019-01-29T03:59:32.270Z,3.42
2019-01-29T04:00:32.356Z,3.42
2019-01-29T04:01:32.335Z,3.55
2019-01-29T04:02:32.369Z,3.45
2019-01-29T04:03:32.407Z,3.40
2019-01-29T04:04:32.441Z,3.48
2019-01-29T04:05:32.479Z,3.47
2019-01-29T04:06:32.514Z,3.52
2019-01-29T04:07:32.553Z,3.45
2019-01-29T04:08:32.598Z,3.57
2019-01-29T04:09:32.624Z,3.48
2019-01-29T04:10:32.660Z,3.54
2019-01-29T04:11:32.704Z,3.47
2019-01-29T04:12:32.734Z,3.54
2019-01-29T04:13:32.768Z,3.61
2019-01-29T04:14:32.815Z,3.54
2019-01-29T04:15:32.840Z,3.62
2019-01-29T04:16:32.893Z,3.54
2019-01-29T04:17:32.916Z,3.58
2019-01-29T04:18:32.949Z,3.65
2019-01-29T04:19:32.997Z,3.68
2019-01-29T04:20:33.020Z,3.66
2019-01-29T04:21:33.058Z,3.69
2019-01-29T04:22:33.095Z,3.68
2019-01-29T04:23:33.138Z,3.58
2019-01-29T04:24:33.168Z,3.73
2019-01-29T04:25:33.203Z,3.69
2019-01-29T04:26:33.240Z,3.70
2019-01-29T04:27:33.275Z,3.65
2019-01-29T04:28:33.309Z,3.70
2019-01-29T04:29:33.353Z,3.65
2019-01-29T04:30:33.399Z,3.66
2019-01-29T04:31:33.417Z,3.66
2019-01-29T04:32:33.456Z,3.69
2019-01-29T04:33:33.503Z,3.75
2019-01-29T04:34:33.534Z,3.65
2019-01-29T04:35:33.567Z,3.69
2019-01-29T04:36:33.608Z,3.66
2019-01-29T04:37:33.645Z,3.68
2019-01-29T04:38:33.673Z,3.65
2019-01-29T04:39:33.710Z,3.65
2019-01-29T04:40:33.798Z,3.68
2019-01-29T04:41:33.793Z,3.68
2019-01-29T04:42:33.820Z,3.72
2019-01-29T04:43:33.855Z,3.69
2019-01-29T04:44:33.893Z,3.62
2019-01-29T04:45:33.928Z,3.70
2019-01-29T04:46:33.966Z,3.78
2019-01-29T04:47:34.002Z,3.80
2019-01-29T04:48:34.036Z,3.83
2019-01-29T04:49:34.079Z,3.73
2019-01-29T04:50:34.110Z,3.73
2019-01-29T04:51:34.145Z,3.65
2019-01-29T04:52:34.183Z,3.66
2019-01-29T04:53:34.217Z,3.69
2019-01-29T04:54:34.256Z,3.65
2019-01-29T04:55:34.289Z,3.69
2019-01-29T04:56:34.329Z,3.65
2019-01-29T04:57:34.371Z,3.58
2019-01-29T04:58:34.403Z,3.54
2019-01-29T04:59:34.437Z,3.51
2019-01-29T05:00:34.471Z,3.54
2019-01-29T05:01:34.512Z,3.54
2019-01-29T05:02:34.545Z,3.47
2019-01-29T05:03:34.581Z,3.47
2019-01-29T05:04:34.620Z,3.39
2019-01-29T05:05:34.651Z,3.42
2019-01-29T05:06:34.688Z,3.31
2019-01-29T05:07:34.725Z,3.36
2019-01-29T05:08:34.759Z,3.32
2019-01-29T05:09:34.796Z,3.31
2019-01-29T05:10:34.834Z,3.31
2019-01-29T05:11:34.871Z,3.26
2019-01-29T05:12:34.905Z,3.31
2019-01-29T05:13:34.942Z,3.26
2019-01-29T05:14:34.978Z,3.31
2019-01-29T05:15:35.014Z,3.20
2019-01-29T05:16:35.051Z,3.13
2019-01-29T05:17:35.087Z,3.00
2019-01-29T05:18:35.125Z,2.97
2019-01-29T05:19:35.160Z,3.00
2019-01-29T05:20:35.197Z,3.00
2019-01-29T05:21:35.233Z,2.97
2019-01-29T05:22:35.270Z,2.89
2019-01-29T05:23:35.305Z,2.96
2019-01-29T05:24:35.343Z,2.95
2019-01-29T05:25:35.376Z,2.92
2019-01-29T05:26:35.413Z,2.93
2019-01-29T05:27:35.450Z,2.99
2019-01-29T05:28:35.485Z,3.00
2019-01-29T05:29:35.519Z,3.05
2019-01-29T05:30:35.557Z,3.06
2019-01-29T05:31:35.592Z,3.06
2019-01-29T05:32:35.631Z,3.02
2019-01-29T05:33:35.670Z,3.06
2019-01-29T05:34:35.703Z,3.00
2019-01-29T05:35:35.737Z,3.08
2019-01-29T05:36:35.776Z,3.03
2019-01-29T05:37:35.812Z,3.11
2019-01-29T05:38:35.850Z,3.08
2019-01-29T05:39:35.883Z,3.17
2019-01-29T05:40:35.920Z,3.15
2019-01-29T05:41:35.963Z,3.18
2019-01-29T05:42:35.992Z,3.21
2019-01-29T05:43:36.027Z,3.17
2019-01-29T05:44:36.062Z,3.20
2019-01-29T05:45:36.100Z,3.20
2019-01-29T05:46:36.153Z,3.18
2019-01-29T05:47:36.170Z,3.18
2019-01-29T05:48:36.212Z,3.11
2019-01-29T05:49:36.248Z,3.06
2019-01-29T05:50:36.283Z,3.06
2019-01-29T05:51:36.316Z,3.11
2019-01-29T05:52:36.357Z,3.10
2019-01-29T05:53:36.390Z,3.06
2019-01-29T05:54:36.427Z,3.05
2019-01-29T05:55:36.462Z,3.03
2019-01-29T05:56:36.507Z,3.10
2019-01-29T05:57:36.533Z,2.97
2019-01-29T05:58:36.665Z,3.02
2019-01-29T05:59:36.604Z,3.03
2019-01-29T06:00:36.651Z,3.05
2019-01-29T06:01:36.678Z,2.97
2019-01-29T06:02:36.712Z,2.90
2019-01-29T06:03:36.748Z,3.02
2019-01-29T06:04:36.793Z,2.96
2019-01-29T06:05:36.823Z,2.95
2019-01-29T06:06:36.857Z,2.82
2019-01-29T06:07:36.902Z,2.93
2019-01-29T06:08:36.930Z,3.06
2019-01-29T06:09:36.968Z,2.96
2019-01-29T06:10:37.011Z,2.95
2019-01-29T06:11:37.037Z,3.00
2019-01-29T06:12:37.074Z,3.05
2019-01-29T06:13:37.110Z,3.02
2019-01-29T06:14:37.160Z,3.06
2019-01-29T06:15:37.183Z,2.97
2019-01-29T06:16:37.218Z,3.08
2019-01-29T06:17:37.254Z,3.06
2019-01-29T06:18:37.291Z,3.03
2019-01-29T06:19:37.327Z,3.02
2019-01-29T06:20:37.361Z,3.11
2019-01-29T06:21:37.406Z,3.08
2019-01-29T06:22:37.435Z,3.00
2019-01-29T06:23:37.479Z,3.03
2019-01-29T06:24:37.510Z,3.15
2019-01-29T06:25:39.224Z,3.15
2019-01-29T06:26:37.580Z,3.17
2019-01-29T06:27:37.623Z,3.18
2019-01-29T06:28:37.650Z,3.20
2019-01-29T06:29:37.693Z,3.17
2019-01-29T06:30:37.727Z,3.15
2019-01-29T06:31:37.759Z,3.15
2019-01-29T06:32:37.797Z,3.13
2019-01-29T06:33:37.834Z,3.17
2019-01-29T06:34:37.869Z,3.11
2019-01-29T06:35:37.902Z,3.13
2019-01-29T06:36:37.942Z,3.08
2019-01-29T06:37:37.978Z,3.11
2019-01-29T06:38:38.013Z,3.02
2019-01-29T06:39:38.047Z,3.03
2019-01-29T06:40:38.085Z,3.02
2019-01-29T06:41:38.120Z,2.92
2019-01-29T06:42:38.160Z,2.89
2019-01-29T06:43:38.191Z,2.84
2019-01-29T06:44:38.229Z,2.77
2019-01-29T06:45:38.272Z,2.75
2019-01-29T06:46:38.299Z,2.72
2019-01-29T06:47:38.336Z,2.75
2019-01-29T06:48:38.372Z,2.71
2019-01-29T06:49:38.408Z,2.79
2019-01-29T06:50:38.494Z,2.67
2019-01-29T06:51:38.482Z,2.79
2019-01-29T06:52:38.516Z,2.78
2019-01-29T06:53:38.551Z,2.78
2019-01-29T06:54:38.591Z,2.77
2019-01-29T06:55:38.623Z,2.72
2019-01-29T06:56:38.659Z,2.72
2019-01-29T06:57:38.803Z,2.69
2019-01-29T06:58:38.731Z,2.61
2019-01-29T06:59:38.766Z,2.66
2019-01-29T07:00:38.820Z,2.59
2019-01-29T07:01:38.845Z,2.64
2019-01-29T07:02:38.950Z,2.61
2019-01-29T07:03:38.928Z,2.61
2019-01-29T07:04:38.955Z,2.57
2019-01-29T07:05:38.984Z,2.54
2019-01-29T07:06:39.019Z,2.45
2019-01-29T07:07:39.062Z,2.43
2019-01-29T07:08:39.090Z,2.63
2019-01-29T07:09:39.126Z,2.67
2019-01-29T07:10:39.161Z,2.53
2019-01-29T07:11:39.207Z,2.46
2019-01-29T07:12:39.231Z,2.54
2019-01-29T07:13:39.269Z,2.46
2019-01-29T07:14:39.304Z,2.54
2019-01-29T07:15:39.340Z,2.41
2019-01-29T07:16:39.375Z,2.43
2019-01-29T07:17:39.411Z,2.48
2019-01-29T07:18:39.461Z,2.48
2019-01-29T07:19:39.487Z,2.48
2019-01-29T07:20:39.519Z,2.48
2019-01-29T07:21:39.559Z,2.43
2019-01-29T07:22:39.593Z,2.46
2019-01-29T07:23:39.634Z,2.49
2019-01-29T07:24:42.884Z,2.59
2019-01-29T07:25:39.698Z,2.56
2019-01-29T07:26:39.737Z,2.53
2019-01-29T07:27:39.768Z,2.57
2019-01-29T07:28:39.816Z,2.61
2019-01-29T07:29:39.846Z,2.64
2019-01-29T07:30:39.876Z,2.64
2019-01-29T07:31:39.910Z,2.72
2019-01-29T07:32:39.956Z,2.74
2019-01-29T07:33:41.880Z,2.75
2019-01-29T07:34:40.028Z,2.75
2019-01-29T07:35:40.054Z,2.82
2019-01-29T07:36:40.095Z,2.82
2019-01-29T07:37:40.138Z,2.82
2019-01-29T07:38:40.167Z,2.84
2019-01-29T07:39:40.198Z,2.81
2019-01-29T07:40:40.239Z,2.89
2019-01-29T07:41:40.269Z,2.81
2019-01-29T07:42:40.305Z,2.82
2019-01-29T07:43:40.343Z,2.85
2019-01-29T07:44:40.376Z,2.81
2019-01-29T07:45:40.420Z,2.78
2019-01-29T07:46:40.453Z,2.75
2019-01-29T07:47:40.485Z,2.71
2019-01-29T07:48:40.521Z,2.82
2019-01-29T07:49:40.556Z,2.87
2019-01-29T07:50:40.593Z,2.82
2019-01-29T07:51:40.628Z,2.95
2019-01-29T07:52:40.693Z,2.95
2019-01-29T07:53:40.699Z,2.93
2019-01-29T07:54:40.738Z,2.90
2019-01-29T07:55:40.769Z,2.87
2019-01-29T07:56:40.808Z,3.00
2019-01-29T07:57:40.843Z,2.92
2019-01-29T07:58:40.878Z,3.10
2019-01-29T07:59:40.914Z,3.14
2019-01-29T08:00:42.216Z,3.15
2019-01-29T08:01:40.986Z,3.14
2019-01-29T08:02:41.025Z,3.31
2019-01-29T08:03:41.056Z,3.26
2019-01-29T08:04:41.092Z,3.32
2019-01-29T08:05:41.129Z,3.31
2019-01-29T08:06:41.167Z,3.39
2019-01-29T08:07:41.200Z,3.29
2019-01-29T08:08:41.238Z,3.47
2019-01-29T08:09:41.280Z,3.47
2019-01-29T08:10:41.317Z,3.43
2019-01-29T08:11:41.347Z,3.43
2019-01-29T08:12:41.391Z,3.57
2019-01-29T08:13:41.417Z,3.54
2019-01-29T08:14:41.458Z,3.57
2019-01-29T08:15:41.488Z,3.58
2019-01-29T08:16:41.525Z,3.50
2019-01-29T08:17:41.562Z,3.43
2019-01-29T08:18:41.709Z,3.51
2019-01-29T08:19:41.632Z,3.47
2019-01-29T08:20:41.671Z,3.45
2019-01-29T08:21:41.772Z,3.45
2019-01-29T08:22:41.742Z,3.51
2019-01-29T08:23:41.776Z,3.47
2019-01-29T08:24:41.813Z,3.40
2019-01-29T08:25:47.553Z,3.42
2019-01-29T08:26:41.889Z,3.36
2019-01-29T08:27:41.923Z,3.39
2019-01-29T08:28:41.966Z,3.32
2019-01-29T08:29:41.994Z,3.40
2019-01-29T08:30:42.030Z,3.45
2019-01-29T08:31:42.065Z,3.43
2019-01-29T08:32:42.106Z,3.40
2019-01-29T08:33:42.141Z,3.33
2019-01-29T08:34:42.177Z,3.45
2019-01-29T08:35:42.225Z,3.43
2019-01-29T08:36:42.254Z,3.54
2019-01-29T08:37:42.281Z,3.47
2019-01-29T08:38:42.329Z,3.50
2019-01-29T08:39:42.356Z,3.50
2019-01-29T08:40:42.392Z,3.52
2019-01-29T08:41:42.427Z,3.57
2019-01-29T08:42:42.463Z,3.52
2019-01-29T08:43:42.498Z,3.52
2019-01-29T08:44:42.535Z,3.66
2019-01-29T08:45:42.572Z,3.55
2019-01-29T08:46:42.607Z,3.58
2019-01-29T08:47:42.643Z,3.65
2019-01-29T08:48:42.683Z,3.65
2019-01-29T08:49:42.724Z,3.66
2019-01-29T08:50:42.754Z,3.75
2019-01-29T08:51:42.789Z,3.68
2019-01-29T08:52:42.824Z,3.79
2019-01-29T08:53:42.860Z,3.86
2019-01-29T08:54:42.897Z,4.00
2019-01-29T08:55:42.932Z,4.08
2019-01-29T08:56:42.968Z,4.14
2019-01-29T08:57:43.004Z,4.32
2019-01-29T08:58:43.042Z,4.32
2019-01-29T08:59:43.139Z,4.27
2019-01-29T09:00:43.114Z,4.18
2019-01-29T09:01:43.158Z,4.27
2019-01-29T09:02:43.188Z,4.22
2019-01-29T09:03:43.281Z,4.30
2019-01-29T09:04:43.260Z,4.22
2019-01-29T09:05:43.298Z,4.37
2019-01-29T09:06:43.334Z,4.42
2019-01-29T09:07:43.375Z,4.45
2019-01-29T09:08:43.404Z,4.51
2019-01-29T09:09:43.442Z,4.55
2019-01-29T09:10:43.478Z,4.60
2019-01-29T09:11:43.517Z,4.52
2019-01-29T09:12:43.553Z,4.58
2019-01-29T09:13:43.594Z,4.54
2019-01-29T09:14:43.629Z,4.59
2019-01-29T09:15:43.660Z,4.70
2019-01-29T09:16:43.700Z,4.73
2019-01-29T09:17:43.745Z,4.77
2019-01-29T09:18:43.773Z,4.80
2019-01-29T09:19:43.806Z,4.85
2019-01-29T09:20:43.853Z,4.78
2019-01-29T09:21:43.881Z,4.84
2019-01-29T09:22:43.920Z,4.86
2019-01-29T09:23:44.031Z,4.88
2019-01-29T09:24:43.994Z,4.78
2019-01-29T09:25:44.028Z,4.89
2019-01-29T09:26:44.073Z,4.97
2019-01-29T09:27:44.100Z,4.99
2019-01-29T09:28:44.145Z,5.07
2019-01-29T09:29:44.178Z,5.09
2019-01-29T09:30:44.214Z,5.17
2019-01-29T09:31:44.248Z,5.17
2019-01-29T09:32:44.293Z,5.22
2019-01-29T09:33:44.323Z,5.30
2019-01-29T09:34:44.359Z,5.39
2019-01-29T09:35:44.396Z,5.39
2019-01-29T09:36:44.436Z,5.36
2019-01-29T09:37:44.472Z,5.38
2019-01-29T09:38:44.508Z,5.39
2019-01-29T09:39:44.549Z,5.43
2019-01-29T09:40:44.580Z,5.40
2019-01-29T09:41:44.719Z,5.42
2019-01-29T09:42:44.662Z,5.42
2019-01-29T09:43:44.699Z,5.40
2019-01-29T09:44:44.729Z,5.42
2019-01-29T09:45:44.766Z,5.46
2019-01-29T09:46:44.820Z,5.49
2019-01-29T09:47:44.848Z,5.45
2019-01-29T09:48:44.877Z,5.45
2019-01-29T09:49:44.926Z,5.53
2019-01-29T09:50:44.953Z,5.56
2019-01-29T09:51:44.991Z,5.57
2019-01-29T09:52:45.029Z,5.61
2019-01-29T09:53:45.073Z,5.60
2019-01-29T09:54:45.103Z,5.72
2019-01-29T09:55:45.138Z,5.68
2019-01-29T09:56:45.175Z,5.74
2019-01-29T09:57:45.214Z,5.76
2019-01-29T09:58:45.250Z,5.76
2019-01-29T09:59:45.287Z,5.82
2019-01-29T10:00:45.329Z,5.85
2019-01-29T10:01:45.367Z,5.94
2019-01-29T10:02:45.399Z,5.86
2019-01-29T10:03:45.439Z,5.86
2019-01-29T10:04:45.474Z,5.94
2019-01-29T10:05:45.514Z,5.91
2019-01-29T10:06:45.550Z,5.97
2019-01-29T10:07:45.586Z,5.79
2019-01-29T10:08:45.624Z,5.86
2019-01-29T10:09:45.661Z,5.93
2019-01-29T10:10:45.699Z,5.86
2019-01-29T10:11:45.735Z,5.90
2019-01-29T10:12:45.774Z,5.99
2019-01-29T10:13:45.812Z,6.00
2019-01-29T10:14:45.849Z,6.15
2019-01-29T10:15:45.886Z,6.12
2019-01-29T10:16:45.925Z,6.11
2019-01-29T10:17:45.961Z,6.12
2019-01-29T10:18:46.010Z,6.21
2019-01-29T10:19:46.038Z,6.15
2019-01-29T10:20:46.077Z,6.17
2019-01-29T10:21:46.113Z,6.27
2019-01-29T10:22:46.160Z,6.28
2019-01-29T10:23:46.190Z,6.25
2019-01-29T10:24:46.225Z,6.37
2019-01-29T10:25:46.264Z,6.34
2019-01-29T10:26:46.302Z,6.36
2019-01-29T10:27:46.344Z,6.22
2019-01-29T10:28:46.374Z,6.22
2019-01-29T10:29:46.413Z,6.18
2019-01-29T10:30:46.452Z,6.19
2019-01-29T10:31:46.489Z,6.21
2019-01-29T10:32:46.526Z,6.34
2019-01-29T10:33:46.572Z,6.37
2019-01-29T10:34:46.602Z,6.37
2019-01-29T10:35:46.639Z,6.41
2019-01-29T10:36:46.678Z,6.41
2019-01-29T10:37:46.721Z,6.31
2019-01-29T10:38:46.758Z,6.40
2019-01-29T10:39:46.800Z,6.43
2019-01-29T10:40:46.831Z,6.62
2019-01-29T10:41:46.864Z,6.43
2019-01-29T10:42:46.910Z,6.58
2019-01-29T10:43:46.948Z,6.55
2019-01-29T10:44:46.992Z,6.62
2019-01-29T10:45:47.018Z,6.71
2019-01-29T10:46:47.054Z,6.74
2019-01-29T10:47:47.090Z,6.77
2019-01-29T10:48:47.131Z,6.89
2019-01-29T10:49:47.176Z,6.94
2019-01-29T10:50:47.209Z,7.02
2019-01-29T10:51:47.258Z,7.09
2019-01-29T10:52:47.282Z,7.23
2019-01-29T10:53:47.320Z,7.25
2019-01-29T10:54:47.361Z,7.27
2019-01-29T10:55:47.747Z,7.27
2019-01-29T10:56:47.444Z,7.27
2019-01-29T10:57:47.474Z,7.25
2019-01-29T10:58:47.511Z,7.25
2019-01-29T10:59:47.548Z,7.25
2019-01-29T11:00:47.587Z,7.21
2019-01-29T11:01:47.627Z,7.20
2019-01-29T11:02:47.664Z,7.25
2019-01-29T11:03:47.704Z,7.31
2019-01-29T11:04:47.742Z,7.40
2019-01-29T11:05:47.778Z,7.34
2019-01-29T11:06:47.817Z,7.48
2019-01-29T11:07:47.857Z,7.43
2019-01-29T11:08:47.893Z,7.39
2019-01-29T11:09:48.492Z,7.58
2019-01-29T11:10:47.979Z,7.55
2019-01-29T11:11:48.020Z,7.57
2019-01-29T11:12:48.048Z,7.49
2019-01-29T11:13:48.087Z,7.42
2019-01-29T11:14:48.125Z,7.50
2019-01-29T11:15:48.164Z,7.48
2019-01-29T11:16:48.202Z,7.48
2019-01-29T11:17:48.240Z,7.55
2019-01-29T11:18:48.286Z,7.53
2019-01-29T11:19:48.317Z,7.55
2019-01-29T11:20:48.359Z,7.61
2019-01-29T11:21:48.397Z,7.60
2019-01-29T11:22:48.434Z,7.48
2019-01-29T11:23:48.472Z,7.50
2019-01-29T11:24:48.512Z,7.46
2019-01-29T11:25:55.600Z,7.45
2019-01-29T11:26:48.593Z,7.46
2019-01-29T11:27:48.636Z,7.57
2019-01-29T11:28:48.664Z,7.57
2019-01-29T11:29:48.703Z,7.55
2019-01-29T11:30:48.745Z,7.60
2019-01-29T11:31:48.781Z,7.50
2019-01-29T11:32:48.819Z,7.55
2019-01-29T11:33:48.859Z,7.57
2019-01-29T11:34:48.904Z,7.63
2019-01-29T11:35:48.934Z,7.64
2019-01-29T11:36:48.975Z,7.61
2019-01-29T11:37:49.012Z,7.67
2019-01-29T11:38:49.060Z,7.71
2019-01-29T11:39:49.089Z,7.71
2019-01-29T11:40:49.128Z,7.72
2019-01-29T11:41:49.166Z,7.75
2019-01-29T11:42:49.204Z,7.85
2019-01-29T11:43:49.245Z,7.92
2019-01-29T11:44:49.284Z,7.83
2019-01-29T11:45:49.322Z,7.89
2019-01-29T11:46:49.361Z,7.83
2019-01-29T11:47:49.410Z,7.69
2019-01-29T11:48:49.439Z,7.72
2019-01-29T11:49:49.479Z,7.79
2019-01-29T11:50:49.516Z,7.71
2019-01-29T11:51:49.565Z,7.75
2019-01-29T11:52:49.593Z,7.72
2019-01-29T11:53:49.638Z,7.68
2019-01-29T11:54:50.431Z,7.71
2019-01-29T11:55:49.711Z,7.64
2019-01-29T11:56:49.751Z,7.52
2019-01-29T11:57:49.790Z,7.50
2019-01-29T11:58:49.827Z,7.46
2019-01-29T11:59:49.888Z,7.24
2019-01-29T12:00:49.905Z,7.15
2019-01-29T12:01:49.944Z,6.97
2019-01-29T12:02:49.981Z,6.79
2019-01-29T12:03:50.021Z,6.62
2019-01-29T12:04:50.066Z,6.56
2019-01-29T12:05:50.105Z,6.55
2019-01-29T12:06:50.136Z,6.52
2019-01-29T12:07:50.175Z,6.33
2019-01-29T12:08:50.219Z,6.38
2019-01-29T12:09:50.252Z,6.31
2019-01-29T12:10:50.290Z,6.31
2019-01-29T12:11:50.328Z,6.30
2019-01-29T12:12:50.369Z,6.19
2019-01-29T12:13:50.408Z,6.27
2019-01-29T12:14:50.445Z,6.25
2019-01-29T12:15:50.484Z,6.19
2019-01-29T12:16:50.523Z,6.40
2019-01-29T12:17:50.559Z,6.37
2019-01-29T12:18:50.600Z,6.37
2019-01-29T12:19:50.641Z,6.52
2019-01-29T12:20:50.674Z,6.54
2019-01-29T12:21:50.711Z,6.43
2019-01-29T12:22:50.750Z,6.48
2019-01-29T12:23:50.787Z,6.58
2019-01-29T12:24:50.825Z,6.48
2019-01-29T12:25:50.871Z,6.67
2019-01-29T12:26:50.914Z,6.58
2019-01-29T12:27:50.964Z,6.61
2019-01-29T12:28:50.979Z,6.69
2019-01-29T12:29:51.018Z,6.71
2019-01-29T12:30:51.055Z,6.88
2019-01-29T12:31:51.095Z,6.92
2019-01-29T12:32:51.139Z,6.98
2019-01-29T12:33:51.168Z,7.09
2019-01-29T12:34:51.209Z,7.25
2019-01-29T12:35:51.244Z,7.39
2019-01-29T12:36:51.291Z,7.39
2019-01-29T12:37:51.321Z,7.39
2019-01-29T12:38:51.362Z,7.42
2019-01-29T12:39:51.397Z,7.49
2019-01-29T12:40:51.436Z,7.57
2019-01-29T12:41:51.476Z,7.55
2019-01-29T12:42:51.512Z,7.35
2019-01-29T12:43:51.550Z,7.40
2019-01-29T12:44:51.591Z,7.40
2019-01-29T12:45:51.630Z,7.35
2019-01-29T12:46:51.667Z,7.24
2019-01-29T12:47:51.708Z,7.39
2019-01-29T12:48:51.743Z,7.42
2019-01-29T12:49:51.791Z,7.35
2019-01-29T12:50:51.821Z,7.30
2019-01-29T12:51:51.860Z,7.23
2019-01-29T12:52:51.898Z,7.15
2019-01-29T12:53:51.939Z,7.12
2019-01-29T12:54:51.975Z,7.10
2019-01-29T12:55:52.018Z,7.13
2019-01-29T12:56:52.062Z,7.07
2019-01-29T12:57:52.094Z,7.09
2019-01-29T12:58:52.132Z,7.12
2019-01-29T12:59:52.170Z,7.06
2019-01-29T13:00:52.211Z,6.92
2019-01-29T13:01:52.246Z,6.97
2019-01-29T13:02:52.378Z,6.97
2019-01-29T13:03:52.322Z,6.94
2019-01-29T13:04:52.373Z,6.89
2019-01-29T13:05:52.405Z,6.91
2019-01-29T13:06:52.445Z,6.91
2019-01-29T13:07:52.780Z,7.03
2019-01-29T13:08:52.520Z,6.95
2019-01-29T13:09:52.564Z,6.92
2019-01-29T13:10:52.603Z,6.89
2019-01-29T13:11:52.644Z,6.94
2019-01-29T13:12:52.674Z,6.94
2019-01-29T13:13:52.711Z,6.97
2019-01-29T13:14:52.748Z,6.92
2019-01-29T13:15:52.781Z,7.09
2019-01-29T13:16:52.834Z,6.97
2019-01-29T13:17:52.859Z,6.89
2019-01-29T13:18:52.899Z,6.94